createdAt,value
2017-02-01T00:00:52.056Z,1010.22
2017-02-01T00:01:52.035Z,1010.26
2017-02-01T00:02:52.010Z,1010.26
2017-02-01T00:03:51.989Z,1010.26
2017-02-01T00:04:51.971Z,1010.29
2017-02-01T00:05:51.944Z,1010.31
2017-02-01T00:06:52.124Z,1010.32
2017-02-01T00:07:51.903Z,1010.29
2017-02-01T00:08:51.878Z,1010.29
2017-02-01T00:09:51.857Z,1010.28
2017-02-01T00:10:51.836Z,1010.28
2017-02-01T00:11:51.812Z,1010.27
2017-02-01T00:12:51.790Z,1010.24
2017-02-01T00:13:51.769Z,1010.28
2017-02-01T00:14:51.746Z,1010.22
2017-02-01T00:15:51.724Z,1010.22
2017-02-01T00:16:51.699Z,1010.28
2017-02-01T00:17:51.680Z,1010.24
2017-02-01T00:18:51.657Z,1010.28
2017-02-01T00:19:51.637Z,1010.25
2017-02-01T00:20:51.614Z,1010.22
2017-02-01T00:21:51.591Z,1010.24
2017-02-01T00:22:51.569Z,1010.25
2017-02-01T00:23:51.547Z,1010.26
2017-02-01T00:24:51.526Z,1010.23
2017-02-01T00:25:51.503Z,1010.24
2017-02-01T00:26:51.482Z,1010.26
2017-02-01T00:27:51.460Z,1010.27
2017-02-01T00:28:51.441Z,1010.26
2017-02-01T00:29:51.416Z,1010.25
2017-02-01T00:30:51.396Z,1010.22
2017-02-01T00:31:51.374Z,1010.23
2017-02-01T00:32:51.351Z,1010.2
2017-02-01T00:33:51.328Z,1010.2
2017-02-01T00:34:51.306Z,1010.19
2017-02-01T00:35:51.286Z,1010.19
2017-02-01T00:36:51.263Z,1010.15
2017-02-01T00:37:51.243Z,1010.14
2017-02-01T00:38:51.223Z,1010.14
2017-02-01T00:39:51.199Z,1010.12
2017-02-01T00:40:51.177Z,1010.08
2017-02-01T00:41:51.155Z,1010.12
2017-02-01T00:42:51.135Z,1010.11
2017-02-01T00:43:51.112Z,1010.13
2017-02-01T00:44:51.090Z,1010.08
2017-02-01T00:45:51.070Z,1010.06
2017-02-01T00:46:51.048Z,1010.08
2017-02-01T00:47:51.025Z,1010.08
2017-02-01T00:48:51.003Z,1010.09
2017-02-01T00:49:50.984Z,1010.1
2017-02-01T00:50:50.963Z,1010.13
2017-02-01T00:51:50.938Z,1010.12
2017-02-01T00:52:50.919Z,1010.15
2017-02-01T00:53:50.897Z,1010.19
2017-02-01T00:54:50.879Z,1010.2
2017-02-01T00:55:50.853Z,1010.22
2017-02-01T00:56:50.830Z,1010.26
2017-02-01T00:57:50.809Z,1010.23
2017-02-01T00:58:50.790Z,1010.24
2017-02-01T00:59:50.769Z,1010.26
2017-02-01T01:00:50.748Z,1010.24
2017-02-01T01:01:50.723Z,1010.23
2017-02-01T01:02:50.702Z,1010.25
2017-02-01T01:03:50.679Z,1010.25
2017-02-01T01:04:50.659Z,1010.24
2017-02-01T01:05:50.635Z,1010.25
2017-02-01T01:06:50.616Z,1010.23
2017-02-01T01:07:50.594Z,1010.22
2017-02-01T01:08:50.576Z,1010.2
2017-02-01T01:09:50.553Z,1010.21
2017-02-01T01:10:50.530Z,1010.2
2017-02-01T01:11:50.507Z,1010.22
2017-02-01T01:12:50.487Z,1010.19
2017-02-01T01:13:50.465Z,1010.21
2017-02-01T01:14:50.444Z,1010.17
2017-02-01T01:15:50.424Z,1010.17
2017-02-01T01:16:50.400Z,1010.18
2017-02-01T01:17:50.378Z,1010.13
2017-02-01T01:18:50.357Z,1010.14
2017-02-01T01:19:50.338Z,1010.18
2017-02-01T01:20:50.313Z,1010.2
2017-02-01T01:21:50.293Z,1010.17
2017-02-01T01:22:50.272Z,1010.19
2017-02-01T01:23:50.256Z,1010.21
2017-02-01T01:24:50.228Z,1010.14
2017-02-01T01:25:50.209Z,1010.15
2017-02-01T01:26:50.187Z,1010.12
2017-02-01T01:27:50.166Z,1010.14
2017-02-01T01:28:50.142Z,1010.15
2017-02-01T01:29:50.123Z,1010.15
2017-02-01T01:30:50.101Z,1010.16
2017-02-01T01:31:50.077Z,1010.17
2017-02-01T01:32:50.057Z,1010.18
2017-02-01T01:33:50.036Z,1010.16
2017-02-01T01:34:50.019Z,1010.18
2017-02-01T01:35:49.993Z,1010.18
2017-02-01T01:36:49.973Z,1010.17
2017-02-01T01:37:49.953Z,1010.17
2017-02-01T01:38:49.928Z,1010.18
2017-02-01T01:39:49.910Z,1010.2
2017-02-01T01:40:49.892Z,1010.17
2017-02-01T01:41:49.866Z,1010.17
2017-02-01T01:42:49.845Z,1010.19
2017-02-01T01:43:49.823Z,1010.16
2017-02-01T01:44:49.803Z,1010.17
2017-02-01T01:45:49.784Z,1010.2
2017-02-01T01:46:49.760Z,1010.18
2017-02-01T01:47:49.737Z,1010.2
2017-02-01T01:48:49.718Z,1010.2
2017-02-01T01:49:49.694Z,1010.18
2017-02-01T01:50:49.675Z,1010.21
2017-02-01T01:51:49.680Z,1010.2
2017-02-01T01:52:49.631Z,1010.15
2017-02-01T01:53:49.610Z,1010.18
2017-02-01T01:54:49.588Z,1010.14
2017-02-01T01:55:49.570Z,1010.14
2017-02-01T01:56:49.548Z,1010.14
2017-02-01T01:57:49.524Z,1010.13
2017-02-01T01:58:49.502Z,1010.12
2017-02-01T01:59:49.483Z,1010.14
2017-02-01T02:00:49.461Z,1010.11
2017-02-01T02:01:49.439Z,1010.15
2017-02-01T02:02:49.420Z,1010.13
2017-02-01T02:03:49.397Z,1010.14
2017-02-01T02:04:49.376Z,1010.16
2017-02-01T02:05:49.354Z,1010.15
2017-02-01T02:06:49.535Z,1010.11
2017-02-01T02:07:49.313Z,1010.13
2017-02-01T02:08:49.288Z,1010.11
2017-02-01T02:09:49.268Z,1010.11
2017-02-01T02:10:49.252Z,1010.11
2017-02-01T02:11:49.226Z,1010.08
2017-02-01T02:12:49.206Z,1010.07
2017-02-01T02:13:49.183Z,1010.06
2017-02-01T02:14:49.162Z,1010.1
2017-02-01T02:15:49.141Z,1010.09
2017-02-01T02:16:49.120Z,1010.07
2017-02-01T02:17:49.099Z,1010.06
2017-02-01T02:18:49.086Z,1010.05
2017-02-01T02:19:49.060Z,1010.06
2017-02-01T02:20:49.035Z,1010.03
2017-02-01T02:21:49.015Z,1010.03
2017-02-01T02:22:48.999Z,1010.05
2017-02-01T02:23:48.973Z,1010.05
2017-02-01T02:24:48.952Z,1010.04
2017-02-01T02:25:48.932Z,1010.07
2017-02-01T02:26:48.909Z,1010.04
2017-02-01T02:27:48.888Z,1009.98
2017-02-01T02:28:48.865Z,1010.02
2017-02-01T02:29:48.847Z,1009.99
2017-02-01T02:30:48.821Z,1009.98
2017-02-01T02:31:48.807Z,1009.99
2017-02-01T02:32:48.779Z,1010.02
2017-02-01T02:33:48.757Z,1010.01
2017-02-01T02:34:48.738Z,1009.98
2017-02-01T02:35:48.715Z,1009.97
2017-02-01T02:36:48.694Z,1009.92
2017-02-01T02:37:48.672Z,1009.96
2017-02-01T02:38:48.654Z,1009.92
2017-02-01T02:39:48.632Z,1009.88
2017-02-01T02:40:48.609Z,1009.86
2017-02-01T02:41:48.587Z,1009.87
2017-02-01T02:42:48.568Z,1009.87
2017-02-01T02:43:48.546Z,1009.84
2017-02-01T02:44:48.524Z,1009.88
2017-02-01T02:45:48.503Z,1009.85
2017-02-01T02:46:48.483Z,1009.83
2017-02-01T02:47:48.460Z,1009.79
2017-02-01T02:48:48.441Z,1009.8
2017-02-01T02:49:48.420Z,1009.81
2017-02-01T02:50:48.399Z,1009.76
2017-02-01T02:51:48.378Z,1009.77
2017-02-01T02:52:48.356Z,1009.79
2017-02-01T02:53:48.335Z,1009.74
2017-02-01T02:54:48.314Z,1009.74
2017-02-01T02:55:48.290Z,1009.8
2017-02-01T02:56:48.271Z,1009.8
2017-02-01T02:57:48.248Z,1009.83
2017-02-01T02:58:48.229Z,1009.76
2017-02-01T02:59:48.207Z,1009.74
2017-02-01T03:00:48.185Z,1009.71
2017-02-01T03:01:48.166Z,1009.73
2017-02-01T03:02:48.144Z,1009.75
2017-02-01T03:03:48.122Z,1009.78
2017-02-01T03:04:48.102Z,1009.77
2017-02-01T03:05:48.080Z,1009.75
2017-02-01T03:06:48.060Z,1009.72
2017-02-01T03:07:48.037Z,1009.72
2017-02-01T03:08:48.018Z,1009.73
2017-02-01T03:09:47.996Z,1009.67
2017-02-01T03:10:47.975Z,1009.73
2017-02-01T03:11:47.955Z,1009.71
2017-02-01T03:12:47.932Z,1009.74
2017-02-01T03:13:47.912Z,1009.75
2017-02-01T03:14:47.910Z,1009.74
2017-02-01T03:15:47.869Z,1009.72
2017-02-01T03:16:47.849Z,1009.69
2017-02-01T03:17:47.827Z,1009.71
2017-02-01T03:18:47.806Z,1009.7
2017-02-01T03:19:47.787Z,1009.73
2017-02-01T03:20:47.763Z,1009.74
2017-02-01T03:21:47.743Z,1009.7
2017-02-01T03:22:47.721Z,1009.66
2017-02-01T03:23:47.702Z,1009.64
2017-02-01T03:24:47.680Z,1009.7
2017-02-01T03:25:47.662Z,1009.67
2017-02-01T03:26:47.637Z,1009.66
2017-02-01T03:27:47.618Z,1009.61
2017-02-01T03:28:47.594Z,1009.59
2017-02-01T03:29:47.575Z,1009.55
2017-02-01T03:30:47.554Z,1009.5
2017-02-01T03:31:47.534Z,1009.52
2017-02-01T03:32:47.509Z,1009.47
2017-02-01T03:33:47.489Z,1009.51
2017-02-01T03:34:47.468Z,1009.46
2017-02-01T03:35:47.447Z,1009.42
2017-02-01T03:36:47.426Z,1009.42
2017-02-01T03:37:47.405Z,1009.43
2017-02-01T03:38:47.385Z,1009.45
2017-02-01T03:39:47.365Z,1009.5
2017-02-01T03:40:47.342Z,1009.48
2017-02-01T03:41:47.321Z,1009.49
2017-02-01T03:42:47.302Z,1009.42
2017-02-01T03:43:47.280Z,1009.44
2017-02-01T03:44:47.265Z,1009.44
2017-02-01T03:45:47.236Z,1009.43
2017-02-01T03:46:47.218Z,1009.45
2017-02-01T03:47:47.197Z,1009.43
2017-02-01T03:48:47.175Z,1009.44
2017-02-01T03:49:47.152Z,1009.47
2017-02-01T03:50:47.132Z,1009.43
2017-02-01T03:51:47.110Z,1009.45
2017-02-01T03:52:47.091Z,1009.48
2017-02-01T03:53:47.070Z,1009.48
2017-02-01T03:54:47.053Z,1009.47
2017-02-01T03:55:47.030Z,1009.45
2017-02-01T03:56:47.008Z,1009.48
2017-02-01T03:57:46.986Z,1009.43
2017-02-01T03:58:46.966Z,1009.43
2017-02-01T03:59:46.944Z,1009.39
2017-02-01T04:00:46.924Z,1009.38
2017-02-01T04:01:46.902Z,1009.36
2017-02-01T04:02:46.882Z,1009.41
2017-02-01T04:03:46.862Z,1009.39
2017-02-01T04:04:46.840Z,1009.37
2017-02-01T04:05:46.820Z,1009.41
2017-02-01T04:06:47.002Z,1009.41
2017-02-01T04:07:46.779Z,1009.38
2017-02-01T04:08:46.758Z,1009.36
2017-02-01T04:09:46.736Z,1009.37
2017-02-01T04:10:46.715Z,1009.39
2017-02-01T04:11:46.696Z,1009.38
2017-02-01T04:12:46.675Z,1009.35
2017-02-01T04:13:46.655Z,1009.37
2017-02-01T04:14:46.651Z,1009.35
2017-02-01T04:15:46.609Z,1009.35
2017-02-01T04:16:46.588Z,1009.35
2017-02-01T04:17:46.568Z,1009.35
2017-02-01T04:18:46.549Z,1009.3
2017-02-01T04:19:46.526Z,1009.33
2017-02-01T04:20:46.506Z,1009.29
2017-02-01T04:21:46.489Z,1009.25
2017-02-01T04:22:46.465Z,1009.24
2017-02-01T04:23:46.443Z,1009.23
2017-02-01T04:24:46.424Z,1009.29
2017-02-01T04:25:46.402Z,1009.26
2017-02-01T04:26:46.383Z,1009.29
2017-02-01T04:27:46.360Z,1009.28
2017-02-01T04:28:46.358Z,1009.35
2017-02-01T04:29:46.322Z,1009.33
2017-02-01T04:30:46.298Z,1009.33
2017-02-01T04:31:46.277Z,1009.33
2017-02-01T04:32:46.256Z,1009.29
2017-02-01T04:33:46.235Z,1009.29
2017-02-01T04:34:46.213Z,1009.32
2017-02-01T04:35:46.194Z,1009.31
2017-02-01T04:36:46.175Z,1009.31
2017-02-01T04:37:46.152Z,1009.34
2017-02-01T04:38:46.132Z,1009.31
2017-02-01T04:39:46.110Z,1009.3
2017-02-01T04:40:46.092Z,1009.28
2017-02-01T04:41:46.067Z,1009.28
2017-02-01T04:42:46.047Z,1009.28
2017-02-01T04:43:46.029Z,1009.26
2017-02-01T04:44:46.008Z,1009.31
2017-02-01T04:45:45.985Z,1009.26
2017-02-01T04:46:45.968Z,1009.29
2017-02-01T04:47:45.943Z,1009.33
2017-02-01T04:48:45.925Z,1009.32
2017-02-01T04:49:45.901Z,1009.3
2017-02-01T04:50:45.880Z,1009.27
2017-02-01T04:51:45.862Z,1009.28
2017-02-01T04:52:45.839Z,1009.3
2017-02-01T04:53:45.818Z,1009.32
2017-02-01T04:54:45.799Z,1009.3
2017-02-01T04:55:45.778Z,1009.28
2017-02-01T04:56:45.757Z,1009.34
2017-02-01T04:57:45.738Z,1009.35
2017-02-01T04:58:45.715Z,1009.31
2017-02-01T04:59:45.694Z,1009.35
2017-02-01T05:00:45.672Z,1009.32
2017-02-01T05:01:45.650Z,1009.32
2017-02-01T05:02:45.635Z,1009.33
2017-02-01T05:03:45.610Z,1009.31
2017-02-01T05:04:45.591Z,1009.33
2017-02-01T05:05:45.577Z,1009.33
2017-02-01T05:06:45.627Z,1009.3
2017-02-01T05:07:45.530Z,1009.32
2017-02-01T05:08:45.507Z,1009.37
2017-02-01T05:09:45.486Z,1009.3
2017-02-01T05:10:45.467Z,1009.27
2017-02-01T05:11:45.450Z,1009.3
2017-02-01T05:12:45.428Z,1009.33
2017-02-01T05:13:45.402Z,1009.35
2017-02-01T05:14:45.381Z,1009.32
2017-02-01T05:15:45.360Z,1009.3
2017-02-01T05:16:45.340Z,1009.3
2017-02-01T05:17:45.319Z,1009.33
2017-02-01T05:18:45.297Z,1009.39
2017-02-01T05:19:45.278Z,1009.35
2017-02-01T05:20:45.256Z,1009.38
2017-02-01T05:21:45.236Z,1009.36
2017-02-01T05:22:45.215Z,1009.4
2017-02-01T05:23:45.195Z,1009.4
2017-02-01T05:24:45.174Z,1009.4
2017-02-01T05:25:45.152Z,1009.38
2017-02-01T05:26:45.132Z,1009.4
2017-02-01T05:27:45.112Z,1009.42
2017-02-01T05:28:45.092Z,1009.43
2017-02-01T05:29:45.069Z,1009.45
2017-02-01T05:30:45.051Z,1009.46
2017-02-01T05:31:45.029Z,1009.47
2017-02-01T05:32:45.007Z,1009.54
2017-02-01T05:33:44.990Z,1009.51
2017-02-01T05:34:44.967Z,1009.49
2017-02-01T05:35:44.946Z,1009.49
2017-02-01T05:36:44.925Z,1009.47
2017-02-01T05:37:44.905Z,1009.47
2017-02-01T05:38:44.885Z,1009.45
2017-02-01T05:39:44.864Z,1009.47
2017-02-01T05:40:44.841Z,1009.48
2017-02-01T05:41:44.823Z,1009.45
2017-02-01T05:42:44.802Z,1009.47
2017-02-01T05:43:44.779Z,1009.43
2017-02-01T05:44:44.759Z,1009.39
2017-02-01T05:45:44.738Z,1009.41
2017-02-01T05:46:44.722Z,1009.41
2017-02-01T05:47:44.697Z,1009.39
2017-02-01T05:48:44.681Z,1009.37
2017-02-01T05:49:44.656Z,1009.38
2017-02-01T05:50:44.634Z,1009.35
2017-02-01T05:51:44.640Z,1009.4
2017-02-01T05:52:44.593Z,1009.4
2017-02-01T05:53:44.573Z,1009.43
2017-02-01T05:54:44.553Z,1009.42
2017-02-01T05:55:44.533Z,1009.39
2017-02-01T05:56:44.513Z,1009.37
2017-02-01T05:57:44.492Z,1009.36
2017-02-01T05:58:44.467Z,1009.35
2017-02-01T05:59:44.448Z,1009.35
2017-02-01T06:00:44.431Z,1009.35
2017-02-01T06:01:44.405Z,1009.32
2017-02-01T06:02:44.388Z,1009.32
2017-02-01T06:03:44.364Z,1009.29
2017-02-01T06:04:44.344Z,1009.36
2017-02-01T06:05:44.321Z,1009.37
2017-02-01T06:06:44.301Z,1009.3
2017-02-01T06:07:44.281Z,1009.33
2017-02-01T06:08:44.259Z,1009.37
2017-02-01T06:09:44.239Z,1009.32
2017-02-01T06:10:44.220Z,1009.36
2017-02-01T06:11:44.196Z,1009.36
2017-02-01T06:12:44.178Z,1009.37
2017-02-01T06:13:44.155Z,1009.35
2017-02-01T06:14:44.133Z,1009.33
2017-02-01T06:15:44.113Z,1009.34
2017-02-01T06:16:44.091Z,1009.34
2017-02-01T06:17:44.074Z,1009.33
2017-02-01T06:18:44.050Z,1009.31
2017-02-01T06:19:44.029Z,1009.31
2017-02-01T06:20:44.009Z,1009.3
2017-02-01T06:21:43.987Z,1009.25
2017-02-01T06:22:43.966Z,1009.31
2017-02-01T06:23:43.950Z,1009.27
2017-02-01T06:24:43.924Z,1009.27
2017-02-01T06:25:43.906Z,1009.25
2017-02-01T06:26:43.889Z,1009.25
2017-02-01T06:27:43.863Z,1009.25
2017-02-01T06:28:43.873Z,1009.25
2017-02-01T06:29:43.821Z,1009.35
2017-02-01T06:30:43.800Z,1009.31
2017-02-01T06:31:43.782Z,1009.28
2017-02-01T06:32:43.756Z,1009.27
2017-02-01T06:33:43.734Z,1009.26
2017-02-01T06:34:43.713Z,1009.27
2017-02-01T06:35:43.694Z,1009.27
2017-02-01T06:36:43.671Z,1009.3
2017-02-01T06:37:43.652Z,1009.31
2017-02-01T06:38:43.633Z,1009.33
2017-02-01T06:39:43.609Z,1009.27
2017-02-01T06:40:43.586Z,1009.26
2017-02-01T06:41:43.568Z,1009.27
2017-02-01T06:42:43.545Z,1009.23
2017-02-01T06:43:43.525Z,1009.24
2017-02-01T06:44:43.503Z,1009.26
2017-02-01T06:45:43.484Z,1009.23
2017-02-01T06:46:43.463Z,1009.26
2017-02-01T06:47:43.454Z,1009.23
2017-02-01T06:48:43.420Z,1009.26
2017-02-01T06:49:43.399Z,1009.27
2017-02-01T06:50:43.376Z,1009.3
2017-02-01T06:51:43.356Z,1009.31
2017-02-01T06:52:43.337Z,1009.29
2017-02-01T06:53:43.314Z,1009.31
2017-02-01T06:54:43.291Z,1009.29
2017-02-01T06:55:43.274Z,1009.26
2017-02-01T06:56:43.249Z,1009.25
2017-02-01T06:57:43.229Z,1009.25
2017-02-01T06:58:43.209Z,1009.22
2017-02-01T06:59:43.188Z,1009.26
2017-02-01T07:00:43.167Z,1009.2
2017-02-01T07:01:43.145Z,1009.21
2017-02-01T07:02:43.127Z,1009.26
2017-02-01T07:03:43.104Z,1009.25
2017-02-01T07:04:43.086Z,1009.19
2017-02-01T07:05:43.063Z,1009.21
2017-02-01T07:06:43.043Z,1009.21
2017-02-01T07:07:43.020Z,1009.2
2017-02-01T07:08:43.002Z,1009.19
2017-02-01T07:09:42.979Z,1009.18
2017-02-01T07:10:42.959Z,1009.19
2017-02-01T07:11:42.936Z,1009.15
2017-02-01T07:12:42.916Z,1009.19
2017-02-01T07:13:42.895Z,1009.21
2017-02-01T07:14:42.874Z,1009.22
2017-02-01T07:15:42.853Z,1009.15
2017-02-01T07:16:42.832Z,1009.2
2017-02-01T07:17:42.814Z,1009.2
2017-02-01T07:18:42.790Z,1009.16
2017-02-01T07:19:42.768Z,1009.14
2017-02-01T07:20:42.749Z,1009.13
2017-02-01T07:21:42.728Z,1009.1
2017-02-01T07:22:42.706Z,1009.13
2017-02-01T07:23:42.687Z,1009.12
2017-02-01T07:24:42.664Z,1009.12
2017-02-01T07:25:42.655Z,1009.08
2017-02-01T07:26:42.621Z,1009.06
2017-02-01T07:27:42.602Z,1009.11
2017-02-01T07:28:42.580Z,1009.05
2017-02-01T07:29:42.558Z,1009.09
2017-02-01T07:30:42.537Z,1009.06
2017-02-01T07:31:42.519Z,1009.08
2017-02-01T07:32:42.498Z,1009.09
2017-02-01T07:33:42.479Z,1009.08
2017-02-01T07:34:42.454Z,1009.1
2017-02-01T07:35:42.439Z,1009.06
2017-02-01T07:36:42.413Z,1009.08
2017-02-01T07:37:42.392Z,1009.14
2017-02-01T07:38:42.370Z,1009.1
2017-02-01T07:39:42.351Z,1009.16
2017-02-01T07:40:42.888Z,1009.14
2017-02-01T07:41:42.309Z,1009.18
2017-02-01T07:42:42.289Z,1009.17
2017-02-01T07:43:42.317Z,1009.22
2017-02-01T07:44:42.253Z,1009.21
2017-02-01T07:45:42.231Z,1009.15
2017-02-01T07:46:42.205Z,1009.16
2017-02-01T07:47:42.182Z,1009.19
2017-02-01T07:48:42.163Z,1009.18
2017-02-01T07:49:42.145Z,1009.17
2017-02-01T07:50:42.122Z,1009.18
2017-02-01T07:51:42.099Z,1009.17
2017-02-01T07:52:42.079Z,1009.17
2017-02-01T07:53:42.058Z,1009.19
2017-02-01T07:54:42.041Z,1009.21
2017-02-01T07:55:42.016Z,1009.2
2017-02-01T07:56:41.996Z,1009.17
2017-02-01T07:57:41.974Z,1009.15
2017-02-01T07:58:41.954Z,1009.19
2017-02-01T07:59:41.932Z,1009.19
2017-02-01T08:00:41.915Z,1009.17
2017-02-01T08:01:41.892Z,1009.19
2017-02-01T08:02:41.874Z,1009.21
2017-02-01T08:03:41.849Z,1009.19
2017-02-01T08:04:41.830Z,1009.22
2017-02-01T08:05:41.813Z,1009.24
2017-02-01T08:06:41.798Z,1009.19
2017-02-01T08:07:41.970Z,1009.2
2017-02-01T08:08:41.747Z,1009.25
2017-02-01T08:09:41.727Z,1009.23
2017-02-01T08:10:41.704Z,1009.23
2017-02-01T08:11:41.684Z,1009.22
2017-02-01T08:12:41.665Z,1009.25
2017-02-01T08:13:41.646Z,1009.22
2017-02-01T08:14:41.622Z,1009.23
2017-02-01T08:15:41.601Z,1009.26
2017-02-01T08:16:41.584Z,1009.19
2017-02-01T08:17:41.561Z,1009.23
2017-02-01T08:18:41.542Z,1009.23
2017-02-01T08:19:41.522Z,1009.26
2017-02-01T08:20:41.523Z,1009.26
2017-02-01T08:21:41.477Z,1009.24
2017-02-01T08:22:41.464Z,1009.26
2017-02-01T08:23:41.437Z,1009.2
2017-02-01T08:24:41.417Z,1009.19
2017-02-01T08:25:41.395Z,1009.16
2017-02-01T08:26:41.378Z,1009.15
2017-02-01T08:27:41.353Z,1009.15
2017-02-01T08:28:41.333Z,1009.17
2017-02-01T08:29:41.313Z,1009.11
2017-02-01T08:30:41.293Z,1009.12
2017-02-01T08:31:41.272Z,1009.08
2017-02-01T08:32:41.256Z,1009.07
2017-02-01T08:33:41.231Z,1009.08
2017-02-01T08:34:41.211Z,1009.1
2017-02-01T08:35:41.194Z,1009.06
2017-02-01T08:36:41.170Z,1009.06
2017-02-01T08:37:41.149Z,1009.06
2017-02-01T08:38:41.128Z,1009.07
2017-02-01T08:39:41.108Z,1009.04
2017-02-01T08:40:41.091Z,1009.01
2017-02-01T08:41:41.068Z,1009.01
2017-02-01T08:42:41.046Z,1009.01
2017-02-01T08:43:41.029Z,1009.04
2017-02-01T08:44:41.006Z,1009.07
2017-02-01T08:45:40.988Z,1009.02
2017-02-01T08:46:40.967Z,1009.04
2017-02-01T08:47:40.944Z,1009.04
2017-02-01T08:48:40.927Z,1008.99
2017-02-01T08:49:40.908Z,1009
2017-02-01T08:50:40.885Z,1008.93
2017-02-01T08:51:40.865Z,1008.95
2017-02-01T08:52:40.844Z,1008.96
2017-02-01T08:53:40.822Z,1008.96
2017-02-01T08:54:40.804Z,1008.95
2017-02-01T08:55:40.788Z,1008.9
2017-02-01T08:56:40.773Z,1008.95
2017-02-01T08:57:40.743Z,1008.88
2017-02-01T08:58:40.729Z,1008.93
2017-02-01T08:59:40.716Z,1008.91
2017-02-01T09:00:40.683Z,1008.89
2017-02-01T09:01:40.664Z,1008.9
2017-02-01T09:02:40.642Z,1008.94
2017-02-01T09:03:40.623Z,1008.95
2017-02-01T09:04:40.601Z,1008.94
2017-02-01T09:05:40.584Z,1008.95
2017-02-01T09:06:40.563Z,1008.93
2017-02-01T09:07:40.544Z,1008.96
2017-02-01T09:08:40.522Z,1008.95
2017-02-01T09:09:40.503Z,1008.91
2017-02-01T09:10:40.482Z,1008.97
2017-02-01T09:11:40.464Z,1008.96
2017-02-01T09:12:40.444Z,1008.98
2017-02-01T09:13:40.425Z,1008.98
2017-02-01T09:14:40.403Z,1008.97
2017-02-01T09:15:40.384Z,1008.99
2017-02-01T09:16:40.362Z,1008.96
2017-02-01T09:17:40.343Z,1008.98
2017-02-01T09:18:40.323Z,1008.98
2017-02-01T09:19:40.302Z,1008.96
2017-02-01T09:20:40.286Z,1008.99
2017-02-01T09:21:40.263Z,1008.98
2017-02-01T09:22:40.243Z,1008.97
2017-02-01T09:23:40.224Z,1009.01
2017-02-01T09:24:40.204Z,1008.96
2017-02-01T09:25:40.188Z,1008.94
2017-02-01T09:26:40.166Z,1008.97
2017-02-01T09:27:40.143Z,1008.95
2017-02-01T09:28:40.125Z,1008.95
2017-02-01T09:29:40.107Z,1008.95
2017-02-01T09:30:40.084Z,1008.98
2017-02-01T09:31:40.067Z,1008.9
2017-02-01T09:32:40.045Z,1008.96
2017-02-01T09:33:40.024Z,1008.95
2017-02-01T09:34:40.006Z,1008.99
2017-02-01T09:35:39.987Z,1008.99
2017-02-01T09:36:39.967Z,1008.97
2017-02-01T09:37:39.949Z,1008.93
2017-02-01T09:38:39.928Z,1008.97
2017-02-01T09:39:39.906Z,1008.95
2017-02-01T09:40:39.890Z,1008.96
2017-02-01T09:41:39.866Z,1008.93
2017-02-01T09:42:39.847Z,1008.94
2017-02-01T09:43:39.831Z,1008.92
2017-02-01T09:44:39.809Z,1008.96
2017-02-01T09:45:39.790Z,1008.96
2017-02-01T09:46:39.770Z,1009
2017-02-01T09:47:39.753Z,1008.98
2017-02-01T09:48:39.730Z,1008.99
2017-02-01T09:49:39.712Z,1009.03
2017-02-01T09:50:39.692Z,1009
2017-02-01T09:51:39.674Z,1008.99
2017-02-01T09:52:39.656Z,1008.99
2017-02-01T09:53:39.635Z,1008.99
2017-02-01T09:54:39.617Z,1008.99
2017-02-01T09:55:39.595Z,1008.99
2017-02-01T09:56:39.575Z,1008.97
2017-02-01T09:57:39.560Z,1008.95
2017-02-01T09:58:39.536Z,1008.93
2017-02-01T09:59:39.517Z,1008.97
2017-02-01T10:00:39.498Z,1008.96
2017-02-01T10:01:39.480Z,1008.94
2017-02-01T10:02:39.462Z,1008.94
2017-02-01T10:03:39.442Z,1008.93
2017-02-01T10:04:39.422Z,1008.93
2017-02-01T10:05:39.404Z,1008.94
2017-02-01T10:06:39.384Z,1008.95
2017-02-01T10:07:39.567Z,1008.93
2017-02-01T10:08:39.347Z,1008.94
2017-02-01T10:09:39.329Z,1008.91
2017-02-01T10:10:39.307Z,1008.93
2017-02-01T10:11:39.290Z,1008.9
2017-02-01T10:12:39.272Z,1008.87
2017-02-01T10:13:39.258Z,1008.91
2017-02-01T10:14:39.250Z,1008.92
2017-02-01T10:15:39.221Z,1008.86
2017-02-01T10:16:39.196Z,1008.93
2017-02-01T10:17:39.180Z,1008.92
2017-02-01T10:18:39.162Z,1008.9
2017-02-01T10:19:39.142Z,1008.89
2017-02-01T10:20:39.123Z,1008.9
2017-02-01T10:21:39.104Z,1008.88
2017-02-01T10:22:39.085Z,1008.88
2017-02-01T10:23:39.094Z,1008.9
2017-02-01T10:24:39.046Z,1008.87
2017-02-01T10:25:39.028Z,1008.88
2017-02-01T10:26:39.010Z,1008.87
2017-02-01T10:27:38.993Z,1008.84
2017-02-01T10:28:38.973Z,1008.84
2017-02-01T10:29:38.955Z,1008.82
2017-02-01T10:30:38.933Z,1008.81
2017-02-01T10:31:38.916Z,1008.81
2017-02-01T10:32:38.896Z,1008.76
2017-02-01T10:33:38.880Z,1008.77
2017-02-01T10:34:38.860Z,1008.76
2017-02-01T10:35:38.842Z,1008.78
2017-02-01T10:36:38.824Z,1008.74
2017-02-01T10:37:38.807Z,1008.68
2017-02-01T10:38:38.786Z,1008.67
2017-02-01T10:39:38.767Z,1008.68
2017-02-01T10:40:38.749Z,1008.62
2017-02-01T10:41:38.733Z,1008.6
2017-02-01T10:42:38.714Z,1008.61
2017-02-01T10:43:38.696Z,1008.58
2017-02-01T10:44:38.680Z,1008.58
2017-02-01T10:45:38.659Z,1008.6
2017-02-01T10:46:38.639Z,1008.53
2017-02-01T10:47:38.621Z,1008.55
2017-02-01T10:48:38.604Z,1008.53
2017-02-01T10:49:38.590Z,1008.54
2017-02-01T10:50:38.567Z,1008.54
2017-02-01T10:51:38.552Z,1008.47
2017-02-01T10:52:38.533Z,1008.45
2017-02-01T10:53:38.513Z,1008.46
2017-02-01T10:54:38.495Z,1008.46
2017-02-01T10:55:38.477Z,1008.46
2017-02-01T10:56:38.460Z,1008.41
2017-02-01T10:57:38.442Z,1008.44
2017-02-01T10:58:38.424Z,1008.45
2017-02-01T10:59:38.405Z,1008.44
2017-02-01T11:00:38.388Z,1008.43
2017-02-01T11:01:38.372Z,1008.37
2017-02-01T11:02:38.356Z,1008.37
2017-02-01T11:03:38.335Z,1008.35
2017-02-01T11:04:38.321Z,1008.34
2017-02-01T11:05:38.300Z,1008.35
2017-02-01T11:06:38.286Z,1008.34
2017-02-01T11:07:38.269Z,1008.35
2017-02-01T11:08:38.250Z,1008.32
2017-02-01T11:09:38.242Z,1008.25
2017-02-01T11:10:38.220Z,1008.29
2017-02-01T11:11:38.204Z,1008.31
2017-02-01T11:12:38.188Z,1008.28
2017-02-01T11:13:38.174Z,1008.2
2017-02-01T11:14:38.162Z,1008.12
2017-02-01T11:15:38.144Z,1008.19
2017-02-01T11:16:38.129Z,1008.19
2017-02-01T11:17:38.114Z,1008.17
2017-02-01T11:18:38.099Z,1008.12
2017-02-01T11:19:38.086Z,1008.09
2017-02-01T11:20:38.070Z,1008.05
2017-02-01T11:21:38.055Z,1008.02
2017-02-01T11:22:38.040Z,1007.95
2017-02-01T11:23:38.027Z,1007.95
2017-02-01T11:24:38.011Z,1007.96
2017-02-01T11:25:37.997Z,1008
2017-02-01T11:26:37.986Z,1007.97
2017-02-01T11:27:37.968Z,1007.91
2017-02-01T11:28:37.956Z,1007.88
2017-02-01T11:29:37.939Z,1007.86
2017-02-01T11:30:37.927Z,1007.85
2017-02-01T11:31:37.914Z,1007.87
2017-02-01T11:32:37.901Z,1007.9
2017-02-01T11:33:37.896Z,1007.89
2017-02-01T11:34:37.872Z,1007.85
2017-02-01T11:35:37.869Z,1007.84
2017-02-01T11:36:37.849Z,1007.84
2017-02-01T11:37:37.836Z,1007.84
2017-02-01T11:38:37.825Z,1007.81
2017-02-01T11:39:37.811Z,1007.79
2017-02-01T11:40:37.820Z,1007.78
2017-02-01T11:41:37.787Z,1007.76
2017-02-01T11:42:37.785Z,1007.75
2017-02-01T11:43:37.765Z,1007.73
2017-02-01T11:44:37.753Z,1007.71
2017-02-01T11:45:37.741Z,1007.72
2017-02-01T11:46:37.734Z,1007.7
2017-02-01T11:47:37.720Z,1007.63
2017-02-01T11:48:37.710Z,1007.66
2017-02-01T11:49:37.701Z,1007.61
2017-02-01T11:50:37.690Z,1007.6
2017-02-01T11:51:37.730Z,1007.56
2017-02-01T11:52:37.678Z,1007.52
2017-02-01T11:53:37.665Z,1007.52
2017-02-01T11:54:37.652Z,1007.46
2017-02-01T11:55:37.661Z,1007.5
2017-02-01T11:56:37.626Z,1007.43
2017-02-01T11:57:37.613Z,1007.43
2017-02-01T11:58:37.604Z,1007.43
2017-02-01T11:59:37.591Z,1007.46
2017-02-01T12:00:37.578Z,1007.4
2017-02-01T12:01:37.566Z,1007.44
2017-02-01T12:02:37.561Z,1007.38
2017-02-01T12:03:37.549Z,1007.38
2017-02-01T12:04:37.531Z,1007.44
2017-02-01T12:05:37.518Z,1007.43
2017-02-01T12:06:37.505Z,1007.39
2017-02-01T12:07:37.719Z,1007.33
2017-02-01T12:08:37.477Z,1007.34